sensor_id;sensor_type;location;lat;lon;timestamp;pressure;altitude;pressure_sealevel;temperature;humidity
25947;BME280;13745;51.470;9.894;2022-07-06T00:02:24;100094.84;;;18.62;47.88
25947;BME280;13745;51.470;9.894;2022-07-06T00:05:10;100098.13;;;18.56;48.04
25947;BME280;13745;51.470;9.894;2022-07-06T00:07:56;100109.59;;;18.50;48.16
25947;BME280;13745;51.470;9.894;2022-07-06T00:10:42;100106.03;;;18.49;48.27
25947;BME280;13745;51.470;9.894;2022-07-06T00:13:29;100106.50;;;18.51;48.28
25947;BME280;13745;51.470;9.894;2022-07-06T00:16:15;100104.25;;;18.53;48.25
25947;BME280;13745;51.470;9.894;2022-07-06T00:19:02;100100.22;;;18.51;48.40
25947;BME280;13745;51.470;9.894;2022-07-06T00:21:48;100107.03;;;18.45;48.49
25947;BME280;13745;51.470;9.894;2022-07-06T00:24:34;100103.34;;;18.41;48.50
25947;BME280;13745;51.470;9.894;2022-07-06T00:27:20;100108.84;;;18.33;48.77
25947;BME280;13745;51.470;9.894;2022-07-06T00:30:07;100095.28;;;18.28;48.90
25947;BME280;13745;51.470;9.894;2022-07-06T00:32:53;100098.22;;;18.23;48.95
25947;BME280;13745;51.470;9.894;2022-07-06T00:35:40;100092.44;;;18.16;49.16
25947;BME280;13745;51.470;9.894;2022-07-06T00:38:26;100091.00;;;18.10;49.35
25947;BME280;13745;51.470;9.894;2022-07-06T00:41:12;100083.91;;;18.01;49.52
25947;BME280;13745;51.470;9.894;2022-07-06T00:43:57;100084.25;;;17.91;49.80
25947;BME280;13745;51.470;9.894;2022-07-06T00:46:43;100084.72;;;17.85;49.88
25947;BME280;13745;51.470;9.894;2022-07-06T00:49:29;100087.78;;;17.83;49.99
25947;BME280;13745;51.470;9.894;2022-07-06T00:52:34;100089.06;;;17.77;50.03
25947;BME280;13745;51.470;9.894;2022-07-06T00:55:21;100084.41;;;17.70;50.12
25947;BME280;13745;51.470;9.894;2022-07-06T00:58:08;100088.09;;;17.65;50.31
25947;BME280;13745;51.470;9.894;2022-07-06T01:00:54;100095.38;;;17.61;50.36
25947;BME280;13745;51.470;9.894;2022-07-06T01:03:40;100096.69;;;17.55;50.52
25947;BME280;13745;51.470;9.894;2022-07-06T01:06:27;100096.66;;;17.47;50.74
25947;BME280;13745;51.470;9.894;2022-07-06T01:09:14;100092.16;;;17.43;50.88
25947;BME280;13745;51.470;9.894;2022-07-06T01:12:03;100084.88;;;17.38;50.99
25947;BME280;13745;51.470;9.894;2022-07-06T01:14:50;100085.38;;;17.32;51.20
25947;BME280;13745;51.470;9.894;2022-07-06T01:17:37;100085.53;;;17.27;51.15
25947;BME280;13745;51.470;9.894;2022-07-06T01:20:25;100086.81;;;17.21;51.44
25947;BME280;13745;51.470;9.894;2022-07-06T01:23:12;100085.34;;;17.15;51.64
25947;BME280;13745;51.470;9.894;2022-07-06T01:25:58;100083.41;;;17.07;51.75
25947;BME280;13745;51.470;9.894;2022-07-06T01:28:44;100073.91;;;17.05;51.87
25947;BME280;13745;51.470;9.894;2022-07-06T01:31:30;100080.34;;;17.01;51.83
25947;BME280;13745;51.470;9.894;2022-07-06T01:34:17;100082.38;;;16.95;52.14
25947;BME280;13745;51.470;9.894;2022-07-06T01:37:05;100090.13;;;16.93;52.03
25947;BME280;13745;51.470;9.894;2022-07-06T01:39:51;100086.56;;;16.93;52.19
25947;BME280;13745;51.470;9.894;2022-07-06T01:42:37;100085.59;;;16.89;52.28
25947;BME280;13745;51.470;9.894;2022-07-06T01:45:23;100087.84;;;16.87;52.37
25947;BME280;13745;51.470;9.894;2022-07-06T01:48:10;100086.88;;;16.83;52.62
25947;BME280;13745;51.470;9.894;2022-07-06T01:50:56;100084.28;;;16.78;52.75
25947;BME280;13745;51.470;9.894;2022-07-06T01:53:44;100083.28;;;16.74;52.90
25947;BME280;13745;51.470;9.894;2022-07-06T01:56:30;100073.63;;;16.68;52.87
25947;BME280;13745;51.470;9.894;2022-07-06T01:59:20;100090.84;;;16.69;52.98
25947;BME280;13745;51.470;9.894;2022-07-06T02:02:05;100086.03;;;16.66;53.33
25947;BME280;13745;51.470;9.894;2022-07-06T02:04:51;100090.69;;;16.65;53.25
25947;BME280;13745;51.470;9.894;2022-07-06T02:07:37;100090.50;;;16.62;53.23
25947;BME280;13745;51.470;9.894;2022-07-06T02:10:26;100086.03;;;16.66;53.31
25947;BME280;13745;51.470;9.894;2022-07-06T02:13:12;100086.19;;;16.69;53.41
25947;BME280;13745;51.470;9.894;2022-07-06T02:15:58;100081.69;;;16.73;53.34
25947;BME280;13745;51.470;9.894;2022-07-06T02:18:44;100088.75;;;16.74;53.28
25947;BME280;13745;51.470;9.894;2022-07-06T02:21:30;100090.38;;;16.75;53.27
25947;BME280;13745;51.470;9.894;2022-07-06T02:24:16;100097.44;;;16.76;53.36
25947;BME280;13745;51.470;9.894;2022-07-06T02:27:05;100099.88;;;16.78;53.47
25947;BME280;13745;51.470;9.894;2022-07-06T02:29:51;100102.75;;;16.73;53.31
25947;BME280;13745;51.470;9.894;2022-07-06T02:32:37;100102.59;;;16.69;53.43
25947;BME280;13745;51.470;9.894;2022-07-06T02:35:23;100104.66;;;16.64;53.86
25947;BME280;13745;51.470;9.894;2022-07-06T02:38:10;100106.09;;;16.61;54.00
25947;BME280;13745;51.470;9.894;2022-07-06T02:40:55;100098.38;;;16.63;54.03
25947;BME280;13745;51.470;9.894;2022-07-06T02:43:42;100101.44;;;16.62;54.23
25947;BME280;13745;51.470;9.894;2022-07-06T02:46:28;100095.50;;;16.68;53.99
25947;BME280;13745;51.470;9.894;2022-07-06T02:49:14;100087.78;;;16.70;54.31
25947;BME280;13745;51.470;9.894;2022-07-06T02:52:00;100090.38;;;16.75;54.13
25947;BME280;13745;51.470;9.894;2022-07-06T02:54:48;100094.09;;;16.79;54.31
25947;BME280;13745;51.470;9.894;2022-07-06T02:57:34;100102.31;;;16.79;54.22
25947;BME280;13745;51.470;9.894;2022-07-06T03:00:22;100101.00;;;16.77;54.43
25947;BME280;13745;51.470;9.894;2022-07-06T03:03:09;100106.63;;;16.72;54.63
25947;BME280;13745;51.470;9.894;2022-07-06T03:05:55;100102.91;;;16.68;54.48
25947;BME280;13745;51.470;9.894;2022-07-06T03:08:41;100101.31;;;16.67;54.74
25947;BME280;13745;51.470;9.894;2022-07-06T03:11:27;100110.31;;;16.67;54.83
25947;BME280;13745;51.470;9.894;2022-07-06T03:14:14;100102.59;;;16.69;54.75
25947;BME280;13745;51.470;9.894;2022-07-06T03:17:06;100106.94;;;16.70;54.81
25947;BME280;13745;51.470;9.894;2022-07-06T03:19:52;100112.72;;;16.69;55.07
25947;BME280;13745;51.470;9.894;2022-07-06T03:22:38;100119.00;;;16.69;54.83
25947;BME280;13745;51.470;9.894;2022-07-06T03:25:24;100116.75;;;16.71;54.84
25947;BME280;13745;51.470;9.894;2022-07-06T03:28:11;100118.69;;;16.71;55.02
25947;BME280;13745;51.470;9.894;2022-07-06T03:30:57;100123.66;;;16.69;55.32
25947;BME280;13745;51.470;9.894;2022-07-06T03:33:44;100131.56;;;16.70;55.20
25947;BME280;13745;51.470;9.894;2022-07-06T03:36:30;100129.31;;;16.72;55.33
25947;BME280;13745;51.470;9.894;2022-07-06T03:39:16;100132.53;;;16.74;55.13
25947;BME280;13745;51.470;9.894;2022-07-06T03:42:02;100131.28;;;16.80;55.20
25947;BME280;13745;51.470;9.894;2022-07-06T03:44:50;100131.13;;;16.85;54.94
25947;BME280;13745;51.470;9.894;2022-07-06T03:47:36;100131.47;;;16.92;55.11
25947;BME280;13745;51.470;9.894;2022-07-06T03:50:23;100129.88;;;16.99;55.22
25947;BME280;13745;51.470;9.894;2022-07-06T03:53:10;100131.72;;;17.04;54.99
25947;BME280;13745;51.470;9.894;2022-07-06T03:55:56;100125.28;;;17.08;55.16
25947;BME280;13745;51.470;9.894;2022-07-06T03:59:00;100127.53;;;17.14;55.00
25947;BME280;13745;51.470;9.894;2022-07-06T04:01:50;100131.38;;;17.13;55.14
25947;BME280;13745;51.470;9.894;2022-07-06T04:04:37;100136.88;;;17.13;55.24
25947;BME280;13745;51.470;9.894;2022-07-06T04:07:25;100130.63;;;17.21;55.10
25947;BME280;13745;51.470;9.894;2022-07-06T04:10:12;100132.69;;;17.24;55.18
25947;BME280;13745;51.470;9.894;2022-07-06T04:12:57;100138.19;;;17.24;55.17
25947;BME280;13745;51.470;9.894;2022-07-06T04:15:44;100142.03;;;17.23;55.06
25947;BME280;13745;51.470;9.894;2022-07-06T04:18:30;100135.13;;;17.26;54.98
25947;BME280;13745;51.470;9.894;2022-07-06T04:21:16;100129.84;;;17.29;55.09
25947;BME280;13745;51.470;9.894;2022-07-06T04:24:05;100133.38;;;17.38;54.98
25947;BME280;13745;51.470;9.894;2022-07-06T04:26:52;100129.19;;;17.48;54.79
25947;BME280;13745;51.470;9.894;2022-07-06T04:29:38;100136.63;;;17.56;54.89
25947;BME280;13745;51.470;9.894;2022-07-06T04:32:24;100144.53;;;17.66;54.55
25947;BME280;13745;51.470;9.894;2022-07-06T04:35:11;100145.50;;;17.78;54.23
25947;BME280;13745;51.470;9.894;2022-07-06T04:37:58;100147.56;;;17.90;54.00
25947;BME280;13745;51.470;9.894;2022-07-06T04:40:46;100146.31;;;17.95;53.97
25947;BME280;13745;51.470;9.894;2022-07-06T04:43:34;100148.41;;;17.98;54.02
25947;BME280;13745;51.470;9.894;2022-07-06T04:46:20;100148.25;;;18.03;54.05
25947;BME280;13745;51.470;9.894;2022-07-06T04:49:09;100151.63;;;18.09;54.04
25947;BME280;13745;51.470;9.894;2022-07-06T04:51:55;100151.63;;;18.17;54.08
25947;BME280;13745;51.470;9.894;2022-07-06T04:54:42;100156.94;;;18.22;54.05
25947;BME280;13745;51.470;9.894;2022-07-06T04:57:29;100164.34;;;18.30;53.79
25947;BME280;13745;51.470;9.894;2022-07-06T05:00:16;100166.91;;;18.35;53.36
25947;BME280;13745;51.470;9.894;2022-07-06T05:03:04;100163.97;;;18.39;53.26
25947;BME280;13745;51.470;9.894;2022-07-06T05:05:50;100170.25;;;18.48;53.02
25947;BME280;13745;51.470;9.894;2022-07-06T05:08:36;100163.28;;;18.59;52.73
25947;BME280;13745;51.470;9.894;2022-07-06T05:11:23;100166.50;;;18.69;52.35
25947;BME280;13745;51.470;9.894;2022-07-06T05:14:12;100156.47;;;18.82;52.06
25947;BME280;13745;51.470;9.894;2022-07-06T05:16:59;100171.44;;;18.92;51.97
25947;BME280;13745;51.470;9.894;2022-07-06T05:19:44;100173.16;;;19.05;51.57
25947;BME280;13745;51.470;9.894;2022-07-06T05:22:30;100175.03;;;19.13;51.42
25947;BME280;13745;51.470;9.894;2022-07-06T05:25:16;100186.19;;;19.16;51.21
25947;BME280;13745;51.470;9.894;2022-07-06T05:28:02;100187.28;;;19.24;51.08
25947;BME280;13745;51.470;9.894;2022-07-06T05:30:50;100176.25;;;19.32;51.01
25947;BME280;13745;51.470;9.894;2022-07-06T05:33:37;100178.75;;;19.45;50.91
25947;BME280;13745;51.470;9.894;2022-07-06T05:36:23;100185.47;;;19.56;50.56
25947;BME280;13745;51.470;9.894;2022-07-06T05:39:10;100179.06;;;19.72;50.32
25947;BME280;13745;51.470;9.894;2022-07-06T05:41:55;100181.78;;;19.80;50.08
25947;BME280;13745;51.470;9.894;2022-07-06T05:44:42;100185.25;;;19.89;50.10
25947;BME280;13745;51.470;9.894;2022-07-06T05:47:30;100189.19;;;20.00;49.97
25947;BME280;13745;51.470;9.894;2022-07-06T05:50:37;100182.84;;;20.08;49.94
25947;BME280;13745;51.470;9.894;2022-07-06T05:53:23;100191.81;;;20.17;49.73
25947;BME280;13745;51.470;9.894;2022-07-06T05:56:11;100186.84;;;20.30;49.52
25947;BME280;13745;51.470;9.894;2022-07-06T05:58:58;100187.19;;;20.41;49.13
25947;BME280;13745;51.470;9.894;2022-07-06T06:01:44;100201.84;;;20.53;48.93
25947;BME280;13745;51.470;9.894;2022-07-06T06:04:35;100195.44;;;20.61;48.77
25947;BME280;13745;51.470;9.894;2022-07-06T06:07:21;100196.59;;;20.60;48.86
25947;BME280;13745;51.470;9.894;2022-07-06T06:10:10;100197.78;;;20.70;48.55
25947;BME280;13745;51.470;9.894;2022-07-06T06:12:56;100199.59;;;20.78;48.37
25947;BME280;13745;51.470;9.894;2022-07-06T06:15:43;100208.47;;;20.84;48.00
25947;BME280;13745;51.470;9.894;2022-07-06T06:18:29;100205.38;;;20.85;48.05
25947;BME280;13745;51.470;9.894;2022-07-06T06:21:16;100202.97;;;20.84;48.06
25947;BME280;13745;51.470;9.894;2022-07-06T06:24:02;100208.56;;;20.75;48.20
25947;BME280;13745;51.470;9.894;2022-07-06T06:26:48;100212.25;;;20.79;47.98
25947;BME280;13745;51.470;9.894;2022-07-06T06:29:34;100205.63;;;20.92;47.65
25947;BME280;13745;51.470;9.894;2022-07-06T06:32:19;100214.72;;;21.04;47.53
25947;BME280;13745;51.470;9.894;2022-07-06T06:35:06;100207.28;;;21.16;47.23
25947;BME280;13745;51.470;9.894;2022-07-06T06:37:53;100215.81;;;21.35;46.93
25947;BME280;13745;51.470;9.894;2022-07-06T06:40:39;100218.56;;;21.47;46.69
25947;BME280;13745;51.470;9.894;2022-07-06T06:43:25;100220.28;;;21.51;46.55
25947;BME280;13745;51.470;9.894;2022-07-06T06:46:26;100222.00;;;21.55;46.43
25947;BME280;13745;51.470;9.894;2022-07-06T06:49:12;100223.38;;;21.61;46.29
25947;BME280;13745;51.470;9.894;2022-07-06T06:51:58;100219.34;;;21.71;46.11
25947;BME280;13745;51.470;9.894;2022-07-06T06:54:45;100226.66;;;21.78;45.94
25947;BME280;13745;51.470;9.894;2022-07-06T06:57:31;100223.00;;;21.86;45.85
25947;BME280;13745;51.470;9.894;2022-07-06T07:00:17;100218.28;;;21.87;45.56
25947;BME280;13745;51.470;9.894;2022-07-06T07:03:03;100222.41;;;21.93;45.19
25947;BME280;13745;51.470;9.894;2022-07-06T07:05:49;100228.88;;;21.97;44.89
25947;BME280;13745;51.470;9.894;2022-07-06T07:08:35;100232.09;;;21.99;44.59
25947;BME280;13745;51.470;9.894;2022-07-06T07:11:22;100234.13;;;21.90;44.17
25947;BME280;13745;51.470;9.894;2022-07-06T07:14:08;100242.41;;;21.78;44.24
25947;BME280;13745;51.470;9.894;2022-07-06T07:16:54;100238.31;;;21.72;44.01
25947;BME280;13745;51.470;9.894;2022-07-06T07:19:40;100236.00;;;21.74;43.84
25947;BME280;13745;51.470;9.894;2022-07-06T07:22:26;100234.75;;;21.72;43.69
25947;BME280;13745;51.470;9.894;2022-07-06T07:25:12;100236.00;;;21.74;43.58
25947;BME280;13745;51.470;9.894;2022-07-06T07:27:59;100242.19;;;21.95;43.36
25947;BME280;13745;51.470;9.894;2022-07-06T07:30:45;100235.53;;;22.07;43.10
25947;BME280;13745;51.470;9.894;2022-07-06T07:33:30;100239.13;;;22.35;42.92
25947;BME280;13745;51.470;9.894;2022-07-06T07:36:16;100236.66;;;22.45;42.46
25947;BME280;13745;51.470;9.894;2022-07-06T07:39:02;100237.59;;;22.64;42.20
25947;BME280;13745;51.470;9.894;2022-07-06T07:41:48;100236.88;;;22.79;41.58
25947;BME280;13745;51.470;9.894;2022-07-06T07:44:36;100246.50;;;22.85;40.93
25947;BME280;13745;51.470;9.894;2022-07-06T07:47:23;100244.91;;;22.84;41.00
25947;BME280;13745;51.470;9.894;2022-07-06T07:50:09;100242.38;;;22.79;40.86
25947;BME280;13745;51.470;9.894;2022-07-06T07:52:55;100240.50;;;22.68;40.74
25947;BME280;13745;51.470;9.894;2022-07-06T07:55:41;100252.22;;;22.65;40.47
25947;BME280;13745;51.470;9.894;2022-07-06T07:58:26;100238.03;;;22.66;40.21
25947;BME280;13745;51.470;9.894;2022-07-06T08:01:14;100246.06;;;22.83;39.75
25947;BME280;13745;51.470;9.894;2022-07-06T08:04:00;100239.13;;;22.89;39.60
25947;BME280;13745;51.470;9.894;2022-07-06T08:06:46;100236.19;;;22.82;39.55
25947;BME280;13745;51.470;9.894;2022-07-06T08:09:32;100235.38;;;22.81;39.48
25947;BME280;13745;51.470;9.894;2022-07-06T08:12:18;100224.19;;;23.05;39.12
25947;BME280;13745;51.470;9.894;2022-07-06T08:15:04;100223.91;;;23.25;38.96
25947;BME280;13745;51.470;9.894;2022-07-06T08:17:51;100224.91;;;23.32;38.79
25947;BME280;13745;51.470;9.894;2022-07-06T08:20:38;100230.06;;;23.18;38.58
25947;BME280;13745;51.470;9.894;2022-07-06T08:23:23;100234.25;;;22.97;38.33
25947;BME280;13745;51.470;9.894;2022-07-06T08:26:09;100229.66;;;22.74;37.86
25947;BME280;13745;51.470;9.894;2022-07-06T08:28:55;100239.81;;;22.70;37.60
25947;BME280;13745;51.470;9.894;2022-07-06T08:31:41;100233.44;;;22.97;37.44
25947;BME280;13745;51.470;9.894;2022-07-06T08:34:28;100233.72;;;22.92;37.38
25947;BME280;13745;51.470;9.894;2022-07-06T08:37:14;100239.38;;;22.84;37.89
25947;BME280;13745;51.470;9.894;2022-07-06T08:40:00;100242.59;;;22.86;37.98
25947;BME280;13745;51.470;9.894;2022-07-06T08:42:47;100241.28;;;22.95;37.79
25947;BME280;13745;51.470;9.894;2022-07-06T08:45:34;100241.38;;;23.13;37.67
25947;BME280;13745;51.470;9.894;2022-07-06T08:48:23;100234.53;;;23.08;37.60
25947;BME280;13745;51.470;9.894;2022-07-06T08:51:13;100231.47;;;23.13;37.16
25947;BME280;13745;51.470;9.894;2022-07-06T08:53:59;100234.88;;;23.21;37.00
25947;BME280;13745;51.470;9.894;2022-07-06T08:56:45;100220.63;;;23.35;36.85
25947;BME280;13745;51.470;9.894;2022-07-06T08:59:32;100233.41;;;23.54;36.26
25947;BME280;13745;51.470;9.894;2022-07-06T09:02:19;100231.16;;;23.59;36.19
25947;BME280;13745;51.470;9.894;2022-07-06T09:05:06;100230.50;;;23.66;36.00
25947;BME280;13745;51.470;9.894;2022-07-06T09:07:55;100233.00;;;23.71;36.33
25947;BME280;13745;51.470;9.894;2022-07-06T09:10:41;100231.75;;;23.83;35.87
25947;BME280;13745;51.470;9.894;2022-07-06T09:13:27;100233.50;;;24.06;35.94
25947;BME280;13745;51.470;9.894;2022-07-06T09:16:15;100237.81;;;24.23;35.84
25947;BME280;13745;51.470;9.894;2022-07-06T09:19:01;100230.78;;;24.44;35.06
25947;BME280;13745;51.470;9.894;2022-07-06T09:21:47;100234.03;;;24.68;34.67
25947;BME280;13745;51.470;9.894;2022-07-06T09:24:41;100234.72;;;24.80;34.82
25947;BME280;13745;51.470;9.894;2022-07-06T09:27:27;100233.19;;;24.82;34.82
25947;BME280;13745;51.470;9.894;2022-07-06T09:30:14;100234.69;;;24.61;35.15
25947;BME280;13745;51.470;9.894;2022-07-06T09:33:00;100239.28;;;24.35;35.26
25947;BME280;13745;51.470;9.894;2022-07-06T09:35:46;100245.94;;;24.16;35.54
25947;BME280;13745;51.470;9.894;2022-07-06T09:38:32;100241.69;;;24.03;35.78
25947;BME280;13745;51.470;9.894;2022-07-06T09:41:31;100239.09;;;24.10;35.89
25947;BME280;13745;51.470;9.894;2022-07-06T09:44:21;100237.22;;;24.14;35.84
25947;BME280;13745;51.470;9.894;2022-07-06T09:47:10;100233.56;;;24.28;35.62
25947;BME280;13745;51.470;9.894;2022-07-06T09:49:56;100247.25;;;24.55;35.45
25947;BME280;13745;51.470;9.894;2022-07-06T09:52:53;100252.72;;;24.71;35.04
25947;BME280;13745;51.470;9.894;2022-07-06T09:55:43;100237.53;;;24.65;35.15
25947;BME280;13745;51.470;9.894;2022-07-06T09:58:30;100248.41;;;24.54;35.21
25947;BME280;13745;51.470;9.894;2022-07-06T10:01:25;100246.41;;;24.18;35.61
25947;BME280;13745;51.470;9.894;2022-07-06T10:04:13;100253.06;;;23.83;36.38
25947;BME280;13745;51.470;9.894;2022-07-06T10:07:00;100259.19;;;23.58;36.78
25947;BME280;13745;51.470;9.894;2022-07-06T10:09:46;100251.22;;;23.41;36.99
25947;BME280;13745;51.470;9.894;2022-07-06T10:12:33;100255.03;;;23.22;36.86
25947;BME280;13745;51.470;9.894;2022-07-06T10:15:21;100254.41;;;23.13;37.04
25947;BME280;13745;51.470;9.894;2022-07-06T10:18:09;100247.78;;;23.02;36.92
25947;BME280;13745;51.470;9.894;2022-07-06T10:20:55;100252.94;;;22.89;37.12
25947;BME280;13745;51.470;9.894;2022-07-06T10:23:43;100249.72;;;22.87;37.28
25947;BME280;13745;51.470;9.894;2022-07-06T10:26:29;100244.13;;;22.98;36.98
25947;BME280;13745;51.470;9.894;2022-07-06T10:29:15;100242.09;;;23.26;36.58
25947;BME280;13745;51.470;9.894;2022-07-06T10:32:03;100242.84;;;23.68;35.93
25947;BME280;13745;51.470;9.894;2022-07-06T10:34:49;100244.31;;;24.30;35.36
25947;BME280;13745;51.470;9.894;2022-07-06T10:37:35;100239.19;;;25.06;34.67
25947;BME280;13745;51.470;9.894;2022-07-06T10:40:31;100232.72;;;25.65;33.47
25947;BME280;13745;51.470;9.894;2022-07-06T10:43:36;100242.31;;;25.93;33.18
25947;BME280;13745;51.470;9.894;2022-07-06T10:46:22;100252.53;;;25.89;33.16
25947;BME280;13745;51.470;9.894;2022-07-06T10:49:16;100249.25;;;25.80;33.19
25947;BME280;13745;51.470;9.894;2022-07-06T10:52:02;100261.72;;;25.67;33.33
25947;BME280;13745;51.470;9.894;2022-07-06T10:54:56;100244.19;;;25.63;33.17
25947;BME280;13745;51.470;9.894;2022-07-06T10:57:51;100250.13;;;25.87;32.68
25947;BME280;13745;51.470;9.894;2022-07-06T11:00:50;100248.69;;;25.97;32.64
25947;BME280;13745;51.470;9.894;2022-07-06T11:03:41;100239.81;;;25.88;32.49
25947;BME280;13745;51.470;9.894;2022-07-06T11:06:32;100234.91;;;25.78;32.42
25947;BME280;13745;51.470;9.894;2022-07-06T11:09:18;100245.91;;;25.71;32.28
25947;BME280;13745;51.470;9.894;2022-07-06T11:12:17;100241.84;;;25.65;32.14
25947;BME280;13745;51.470;9.894;2022-07-06T11:15:04;100238.41;;;25.50;32.15
25947;BME280;13745;51.470;9.894;2022-07-06T11:18:11;100233.47;;;25.40;32.24
25947;BME280;13745;51.470;9.894;2022-07-06T11:21:17;100238.34;;;25.46;32.12
25947;BME280;13745;51.470;9.894;2022-07-06T11:24:06;100245.94;;;25.49;31.98
25947;BME280;13745;51.470;9.894;2022-07-06T11:26:53;100235.81;;;25.38;31.92
25947;BME280;13745;51.470;9.894;2022-07-06T11:29:39;100233.47;;;25.40;32.12
25947;BME280;13745;51.470;9.894;2022-07-06T11:32:26;100231.69;;;25.51;31.52
25947;BME280;13745;51.470;9.894;2022-07-06T11:35:20;100235.44;;;25.87;31.23
25947;BME280;13745;51.470;9.894;2022-07-06T11:38:27;100227.75;;;26.28;30.97
25947;BME280;13745;51.470;9.894;2022-07-06T11:41:15;100222.00;;;26.72;30.27
25947;BME280;13745;51.470;9.894;2022-07-06T11:44:01;100220.78;;;27.05;30.23
25947;BME280;13745;51.470;9.894;2022-07-06T11:46:47;100220.34;;;27.39;29.66
25947;BME280;13745;51.470;9.894;2022-07-06T11:49:35;100219.09;;;27.79;28.64
25947;BME280;13745;51.470;9.894;2022-07-06T11:52:21;100220.03;;;27.93;28.44
25947;BME280;13745;51.470;9.894;2022-07-06T11:55:08;100223.31;;;28.12;28.15
25947;BME280;13745;51.470;9.894;2022-07-06T11:57:56;100205.56;;;28.34;27.90
25947;BME280;13745;51.470;9.894;2022-07-06T12:00:43;100208.63;;;28.19;27.94
25947;BME280;13745;51.470;9.894;2022-07-06T12:03:29;100212.41;;;27.90;28.34
25947;BME280;13745;51.470;9.894;2022-07-06T12:06:18;100209.47;;;27.70;28.12
25947;BME280;13745;51.470;9.894;2022-07-06T12:09:05;100209.69;;;27.51;28.74
25947;BME280;13745;51.470;9.894;2022-07-06T12:11:51;100190.19;;;27.44;28.89
25947;BME280;13745;51.470;9.894;2022-07-06T12:14:39;100206.41;;;27.39;28.63
25947;BME280;13745;51.470;9.894;2022-07-06T12:17:25;100199.72;;;27.43;28.43
25947;BME280;13745;51.470;9.894;2022-07-06T12:20:11;100194.44;;;27.32;28.02
25947;BME280;13745;51.470;9.894;2022-07-06T12:23:03;100184.53;;;27.38;28.35
25947;BME280;13745;51.470;9.894;2022-07-06T12:25:53;100178.66;;;27.46;28.33
25947;BME280;13745;51.470;9.894;2022-07-06T12:28:40;100177.56;;;27.57;28.10
25947;BME280;13745;51.470;9.894;2022-07-06T12:31:35;100187.94;;;27.64;28.05
25947;BME280;13745;51.470;9.894;2022-07-06T12:34:22;100177.66;;;27.74;28.05
25947;BME280;13745;51.470;9.894;2022-07-06T12:37:09;100185.50;;;27.55;27.86
25947;BME280;13745;51.470;9.894;2022-07-06T12:39:55;100186.78;;;27.22;27.61
25947;BME280;13745;51.470;9.894;2022-07-06T12:42:45;100189.69;;;26.97;27.80
25947;BME280;13745;51.470;9.894;2022-07-06T12:45:31;100194.84;;;26.95;28.33
25947;BME280;13745;51.470;9.894;2022-07-06T12:48:18;100197.53;;;26.88;28.28
25947;BME280;13745;51.470;9.894;2022-07-06T12:51:04;100191.41;;;26.72;28.42
25947;BME280;13745;51.470;9.894;2022-07-06T12:53:50;100199.03;;;26.46;28.62
25947;BME280;13745;51.470;9.894;2022-07-06T12:56:36;100200.47;;;26.05;28.63
25947;BME280;13745;51.470;9.894;2022-07-06T12:59:22;100189.22;;;25.72;29.11
25947;BME280;13745;51.470;9.894;2022-07-06T13:02:16;100186.91;;;25.52;29.16
25947;BME280;13745;51.470;9.894;2022-07-06T13:05:06;100195.09;;;25.42;29.47
25947;BME280;13745;51.470;9.894;2022-07-06T13:07:53;100191.00;;;25.36;29.42
25947;BME280;13745;51.470;9.894;2022-07-06T13:10:40;100196.97;;;25.38;29.64
25947;BME280;13745;51.470;9.894;2022-07-06T13:13:27;100188.47;;;25.50;29.44
25947;BME280;13745;51.470;9.894;2022-07-06T13:16:13;100184.72;;;25.64;29.30
25947;BME280;13745;51.470;9.894;2022-07-06T13:18:59;100197.13;;;25.96;28.89
25947;BME280;13745;51.470;9.894;2022-07-06T13:21:46;100199.78;;;26.14;28.51
25947;BME280;13745;51.470;9.894;2022-07-06T13:24:32;100196.69;;;26.19;28.42
25947;BME280;13745;51.470;9.894;2022-07-06T13:27:18;100184.06;;;26.25;28.43
25947;BME280;13745;51.470;9.894;2022-07-06T13:30:05;100188.00;;;26.24;28.55
25947;BME280;13745;51.470;9.894;2022-07-06T13:32:50;100188.72;;;26.18;28.79
25947;BME280;13745;51.470;9.894;2022-07-06T13:35:36;100184.47;;;25.98;29.21
25947;BME280;13745;51.470;9.894;2022-07-06T13:38:23;100186.44;;;25.72;29.30
25947;BME280;13745;51.470;9.894;2022-07-06T13:41:09;100191.00;;;25.36;29.52
25947;BME280;13745;51.470;9.894;2022-07-06T13:43:55;100197.66;;;25.10;29.81
25947;BME280;13745;51.470;9.894;2022-07-06T13:46:41;100188.69;;;24.75;30.30
25947;BME280;13745;51.470;9.894;2022-07-06T13:49:28;100183.81;;;24.50;30.71
25947;BME280;13745;51.470;9.894;2022-07-06T13:52:14;100182.41;;;24.41;30.72
25947;BME280;13745;51.470;9.894;2022-07-06T13:55:01;100175.88;;;24.49;31.01
25947;BME280;13745;51.470;9.894;2022-07-06T13:57:47;100168.41;;;24.53;30.89
25947;BME280;13745;51.470;9.894;2022-07-06T14:00:33;100177.47;;;24.50;31.02
25947;BME280;13745;51.470;9.894;2022-07-06T14:03:19;100170.31;;;24.49;30.94
25947;BME280;13745;51.470;9.894;2022-07-06T14:06:06;100162.31;;;24.44;31.21
25947;BME280;13745;51.470;9.894;2022-07-06T14:08:52;100171.28;;;24.38;30.96
25947;BME280;13745;51.470;9.894;2022-07-06T14:11:39;100165.69;;;24.34;31.40
25947;BME280;13745;51.470;9.894;2022-07-06T14:14:25;100163.66;;;24.53;31.07
25947;BME280;13745;51.470;9.894;2022-07-06T14:17:11;100167.63;;;24.71;31.12
25947;BME280;13745;51.470;9.894;2022-07-06T14:19:57;100166.75;;;24.89;30.75
25947;BME280;13745;51.470;9.894;2022-07-06T14:22:43;100152.66;;;24.97;30.69
25947;BME280;13745;51.470;9.894;2022-07-06T14:25:29;100150.38;;;25.03;30.73
25947;BME280;13745;51.470;9.894;2022-07-06T14:28:17;100145.91;;;24.95;30.82
25947;BME280;13745;51.470;9.894;2022-07-06T14:31:03;100149.53;;;24.99;30.75
25947;BME280;13745;51.470;9.894;2022-07-06T14:33:49;100150.88;;;24.86;30.80
25947;BME280;13745;51.470;9.894;2022-07-06T14:36:35;100135.19;;;24.94;30.67